createdAt,value
2023-03-05T00:01:36.982Z,37.22
2023-03-05T00:04:06.238Z,40.28
2023-03-05T00:06:34.244Z,37.63
2023-03-05T00:09:04.650Z,30.50
2023-03-05T00:11:38.203Z,39.40
2023-03-05T00:14:06.581Z,39.17
2023-03-05T00:16:34.521Z,38.72
2023-03-05T00:19:02.094Z,35.72
2023-03-05T00:21:33.585Z,42.00
2023-03-05T00:24:02.637Z,44.60
2023-03-05T00:26:30.856Z,43.10
2023-03-05T00:28:58.784Z,39.17
2023-03-05T00:31:34.372Z,44.28
2023-03-05T00:34:04.940Z,36.25
2023-03-05T00:36:32.775Z,48.13
2023-03-05T00:39:00.368Z,40.00
2023-03-05T00:41:28.573Z,39.78
2023-03-05T00:43:56.227Z,41.80
2023-03-05T00:46:23.548Z,39.50
2023-03-05T00:48:50.837Z,41.05
2023-03-05T00:51:17.902Z,39.75
2023-03-05T00:53:45.033Z,41.75
2023-03-05T00:56:12.132Z,45.38
2023-03-05T00:58:39.624Z,41.83
2023-03-05T01:01:06.943Z,37.30
2023-03-05T01:03:35.803Z,41.60
2023-03-05T01:06:07.918Z,44.10
2023-03-05T01:08:36.066Z,43.15
2023-03-05T01:11:04.599Z,39.08
2023-03-05T01:13:31.869Z,45.63
2023-03-05T01:16:01.910Z,37.95
2023-03-05T01:18:29.293Z,42.30
2023-03-05T01:20:56.350Z,42.33
2023-03-05T01:23:25.767Z,37.80
2023-03-05T01:25:57.861Z,41.55
2023-03-05T01:28:25.538Z,34.47
2023-03-05T01:31:09.260Z,42.03
2023-03-05T01:33:36.374Z,41.58
2023-03-05T01:36:06.911Z,47.38
2023-03-05T01:38:36.607Z,40.38
2023-03-05T01:41:06.034Z,36.63
2023-03-05T01:43:33.327Z,41.83
2023-03-05T01:46:22.420Z,40.80
2023-03-05T01:49:03.386Z,38.78
2023-03-05T01:51:37.046Z,45.20
2023-03-05T01:54:07.440Z,40.88
2023-03-05T01:56:34.815Z,44.15
2023-03-05T01:59:03.741Z,47.20
2023-03-05T02:01:35.383Z,45.17
2023-03-05T02:04:03.246Z,43.72
2023-03-05T02:06:30.682Z,40.58
2023-03-05T02:08:58.141Z,44.45
2023-03-05T02:11:25.802Z,44.17
2023-03-05T02:13:53.364Z,38.25
2023-03-05T02:16:20.814Z,41.63
2023-03-05T02:18:48.137Z,40.85
2023-03-05T02:21:28.219Z,47.22
2023-03-05T02:23:55.877Z,45.38
2023-03-05T02:26:28.271Z,39.95
2023-03-05T02:29:02.600Z,42.72
2023-03-05T02:31:31.268Z,38.22
2023-03-05T02:33:58.674Z,43.45
2023-03-05T02:36:26.192Z,43.60
2023-03-05T02:38:54.111Z,45.63
2023-03-05T02:41:21.221Z,42.85
2023-03-05T02:43:48.566Z,42.22
2023-03-05T02:46:24.843Z,40.67
2023-03-05T02:48:58.126Z,45.42
2023-03-05T02:51:30.794Z,48.13
2023-03-05T02:53:58.235Z,48.70
2023-03-05T02:56:25.263Z,49.85
2023-03-05T02:58:55.554Z,41.30
2023-03-05T03:01:31.574Z,46.08
2023-03-05T03:03:59.358Z,42.83
2023-03-05T03:06:29.233Z,47.45
2023-03-05T03:08:56.743Z,48.70
2023-03-05T03:11:23.886Z,47.45
2023-03-05T03:13:51.140Z,36.97
2023-03-05T03:16:18.289Z,49.42
2023-03-05T03:18:47.743Z,42.50
2023-03-05T03:21:23.656Z,46.90
2023-03-05T03:23:51.246Z,45.55
2023-03-05T03:30:09.336Z,41.13
2023-03-05T03:32:39.499Z,42.00
2023-03-05T03:35:07.671Z,42.70
2023-03-05T03:37:34.776Z,42.00
2023-03-05T03:40:01.993Z,46.03
2023-03-05T03:42:29.135Z,39.42
2023-03-05T03:44:56.189Z,38.63
2023-03-05T03:47:23.477Z,44.22
2023-03-05T03:50:00.176Z,43.80
2023-03-05T03:52:27.529Z,46.00
2023-03-05T03:55:01.701Z,42.90
2023-03-05T03:57:31.029Z,46.10
2023-03-05T03:59:58.238Z,37.47
2023-03-05T04:02:26.280Z,40.88
2023-03-05T04:05:46.041Z,42.95
2023-03-05T04:08:13.072Z,40.25
2023-03-05T04:10:40.080Z,42.70
2023-03-05T04:13:08.052Z,41.42
2023-03-05T04:15:38.246Z,44.45
2023-03-05T04:18:08.287Z,43.42
2023-03-05T04:20:35.340Z,43.05
2023-03-05T04:23:02.487Z,35.42
2023-03-05T04:25:29.667Z,40.95
2023-03-05T04:27:56.737Z,43.33
2023-03-05T04:30:23.668Z,46.55
2023-03-05T04:32:50.975Z,45.47
2023-03-05T04:35:18.550Z,53.10
2023-03-05T04:37:45.794Z,44.08
2023-03-05T04:40:13.066Z,46.40
2023-03-05T04:42:40.212Z,46.63
2023-03-05T04:45:08.595Z,44.42
2023-03-05T04:47:35.947Z,43.38
2023-03-05T04:50:04.904Z,44.63
2023-03-05T04:52:32.153Z,39.00
2023-03-05T04:54:59.303Z,41.35
2023-03-05T05:00:16.864Z,44.33
2023-03-05T05:02:48.678Z,41.67
2023-03-05T05:05:18.904Z,38.08
2023-03-05T05:07:45.963Z,37.17
2023-03-05T05:10:14.310Z,42.45
2023-03-05T05:12:44.208Z,44.35
2023-03-05T05:15:12.989Z,36.53
2023-03-05T05:17:40.274Z,42.80
2023-03-05T05:20:08.896Z,37.33
2023-03-05T05:22:35.881Z,36.88
2023-03-05T05:25:03.151Z,42.30
2023-03-05T05:27:33.368Z,45.10
2023-03-05T05:30:00.793Z,43.50
2023-03-05T05:32:28.317Z,44.42
2023-03-05T05:34:56.375Z,38.50
2023-03-05T05:37:23.930Z,39.53
2023-03-05T05:39:54.261Z,41.78
2023-03-05T05:42:26.340Z,41.45
2023-03-05T05:44:55.650Z,39.22
2023-03-05T05:47:22.670Z,39.33
2023-03-05T05:49:52.428Z,40.22
2023-03-05T05:52:19.353Z,44.17
2023-03-05T05:54:46.375Z,39.95
2023-03-05T05:57:18.958Z,40.35
2023-03-05T05:59:46.003Z,37.58
2023-03-05T06:02:12.918Z,43.35
2023-03-05T06:04:40.404Z,51.95
2023-03-05T06:07:07.426Z,44.22
2023-03-05T06:09:36.430Z,39.45
2023-03-05T06:12:03.701Z,40.95
2023-03-05T06:14:30.748Z,42.20
2023-03-05T06:16:57.867Z,36.42
2023-03-05T06:19:24.783Z,36.42
2023-03-05T06:21:57.752Z,34.80
2023-03-05T06:24:24.804Z,40.85
2023-03-05T06:26:52.002Z,41.50
2023-03-05T06:29:19.185Z,38.20
2023-03-05T06:31:46.160Z,43.30
2023-03-05T06:34:13.087Z,38.10
2023-03-05T06:36:40.688Z,30.40
2023-03-05T06:39:07.552Z,41.17
2023-03-05T06:41:34.467Z,40.00
2023-03-05T06:44:03.212Z,33.53
2023-03-05T06:46:32.455Z,35.35
2023-03-05T06:49:01.672Z,35.53
2023-03-05T06:51:31.611Z,40.50
2023-03-05T06:54:12.153Z,35.88
2023-03-05T06:56:41.396Z,38.35
2023-03-05T06:59:09.033Z,37.60
2023-03-05T07:01:36.511Z,42.90
2023-03-05T07:04:04.485Z,41.60
2023-03-05T07:06:38.290Z,34.58
2023-03-05T07:09:07.197Z,36.72
2023-03-05T07:11:37.054Z,37.38
2023-03-05T07:14:04.087Z,33.55
2023-03-05T07:16:33.246Z,37.67
2023-03-05T07:19:02.966Z,39.28
2023-03-05T07:21:32.649Z,37.85
2023-03-05T07:24:01.787Z,33.92
2023-03-05T07:26:29.243Z,39.83
2023-03-05T07:28:56.253Z,40.53
2023-03-05T07:31:34.013Z,37.35
2023-03-05T07:34:02.541Z,34.92
2023-03-05T07:36:30.318Z,38.42
2023-03-05T07:38:57.424Z,41.45
2023-03-05T07:41:24.815Z,44.72
2023-03-05T07:43:53.926Z,37.67
2023-03-05T07:46:25.158Z,39.22
2023-03-05T07:48:54.701Z,36.13
2023-03-05T07:51:22.944Z,39.35
2023-03-05T07:53:51.843Z,39.33
2023-03-05T07:56:35.447Z,38.53
2023-03-05T07:59:06.462Z,38.50
2023-03-05T08:01:34.085Z,42.10
2023-03-05T08:04:02.185Z,42.83
2023-03-05T08:06:29.813Z,37.47
2023-03-05T08:08:59.988Z,45.45
2023-03-05T08:11:28.693Z,36.83
2023-03-05T08:13:59.638Z,40.45
2023-03-05T08:16:27.273Z,41.25
2023-03-05T08:19:04.561Z,35.72
2023-03-05T08:21:36.310Z,30.98
2023-03-05T08:24:06.570Z,37.28
2023-03-05T08:26:38.506Z,34.28
2023-03-05T08:29:07.118Z,37.10
2023-03-05T08:31:34.964Z,36.28
2023-03-05T08:34:02.613Z,39.63
2023-03-05T08:36:30.063Z,41.22
2023-03-05T08:38:57.013Z,38.30
2023-03-05T08:41:23.867Z,35.17
2023-03-05T08:43:51.701Z,33.53
2023-03-05T08:46:18.755Z,43.60
2023-03-05T08:48:45.928Z,34.17
2023-03-05T08:51:27.783Z,39.95
2023-03-05T08:54:01.829Z,33.38
2023-03-05T08:56:37.992Z,33.83
2023-03-05T08:59:05.493Z,35.80
2023-03-05T09:01:32.643Z,38.47
2023-03-05T09:04:00.863Z,40.33
2023-03-05T09:06:28.148Z,37.72
2023-03-05T09:08:55.628Z,30.50
2023-03-05T09:11:23.333Z,35.35
2023-03-05T09:13:50.478Z,36.72
2023-03-05T09:16:19.693Z,41.03
2023-03-05T09:18:46.741Z,35.65
2023-03-05T09:21:16.830Z,40.42
2023-03-05T09:23:44.453Z,45.30
2023-03-05T09:26:13.436Z,35.80
2023-03-05T09:28:41.528Z,37.15
2023-03-05T09:31:11.834Z,39.00
2023-03-05T09:33:39.414Z,35.85
2023-03-05T09:36:22.174Z,35.30
2023-03-05T09:38:49.377Z,31.88
2023-03-05T09:41:34.661Z,39.75
2023-03-05T09:44:16.752Z,30.00
2023-03-05T09:46:56.121Z,36.80
2023-03-05T09:50:00.263Z,34.35
2023-03-05T09:52:41.592Z,35.42
2023-03-05T09:55:26.443Z,33.63
2023-03-05T09:57:57.296Z,38.83
2023-03-05T10:00:41.088Z,44.85
2023-03-05T10:03:33.472Z,40.03
2023-03-05T10:06:22.914Z,37.42
2023-03-05T10:09:02.837Z,40.25
2023-03-05T10:11:48.528Z,40.92
2023-03-05T10:14:39.862Z,34.03
2023-03-05T10:17:37.237Z,35.35
2023-03-05T10:20:27.092Z,34.90
2023-03-05T10:23:09.281Z,37.97
2023-03-05T10:25:55.042Z,33.05
2023-03-05T10:28:35.872Z,34.45
2023-03-05T10:31:30.510Z,31.15
2023-03-05T10:34:03.003Z,38.97
2023-03-05T10:36:45.815Z,40.03
2023-03-05T10:39:18.643Z,31.85
2023-03-05T10:42:02.654Z,37.00
2023-03-05T10:44:37.917Z,35.35
2023-03-05T10:47:21.646Z,33.33
2023-03-05T10:49:54.402Z,34.97
2023-03-05T10:52:46.778Z,43.40
2023-03-05T10:55:16.187Z,37.38
2023-03-05T10:57:43.428Z,38.20
2023-03-05T11:00:21.435Z,35.80
2023-03-05T11:03:09.516Z,33.20
2023-03-05T11:05:46.055Z,38.78
2023-03-05T11:08:34.498Z,38.20
2023-03-05T11:11:10.187Z,38.78
2023-03-05T11:13:55.430Z,34.60
2023-03-05T11:16:28.345Z,35.03
2023-03-05T11:19:17.652Z,33.30
2023-03-05T11:21:46.200Z,35.28
2023-03-05T11:24:19.093Z,43.38
2023-03-05T11:26:47.418Z,41.35
2023-03-05T11:29:19.588Z,35.95
2023-03-05T11:31:46.465Z,34.88
2023-03-05T11:34:19.461Z,34.08
2023-03-05T11:36:55.692Z,30.17
2023-03-05T11:39:24.870Z,32.42
2023-03-05T11:42:05.927Z,32.13
2023-03-05T11:44:50.875Z,35.65
2023-03-05T11:47:51.006Z,28.88
2023-03-05T11:50:25.068Z,30.13
2023-03-05T11:52:56.470Z,38.15
2023-03-05T11:55:41.756Z,32.33
2023-03-05T11:58:26.530Z,29.60
2023-03-05T12:00:53.765Z,32.78
2023-03-05T12:03:29.097Z,32.60
2023-03-05T12:06:09.287Z,32.33
2023-03-05T12:08:40.964Z,33.22
2023-03-05T12:11:21.070Z,30.38
2023-03-05T12:13:56.084Z,28.95
2023-03-05T12:16:37.236Z,29.42
2023-03-05T12:19:28.436Z,29.30
2023-03-05T12:21:55.442Z,28.60
2023-03-05T12:24:43.108Z,37.72
2023-03-05T12:27:15.987Z,29.48
2023-03-05T12:29:54.449Z,26.67
2023-03-05T12:32:31.479Z,29.67
2023-03-05T12:34:59.535Z,24.67
2023-03-05T12:37:26.402Z,27.63
2023-03-05T12:40:08.626Z,24.88
2023-03-05T12:42:43.904Z,24.13
2023-03-05T12:45:11.777Z,29.90
2023-03-05T12:47:42.002Z,30.25
2023-03-05T12:50:27.152Z,25.77
2023-03-05T12:52:59.294Z,28.73
2023-03-05T12:55:33.621Z,24.83
2023-03-05T12:58:14.619Z,28.42
2023-03-05T13:00:51.658Z,27.88
2023-03-05T13:03:22.731Z,30.48
2023-03-05T13:05:55.417Z,26.67
2023-03-05T13:08:28.317Z,22.80
2023-03-05T13:11:18.209Z,27.50
2023-03-05T13:13:47.651Z,28.08
2023-03-05T13:16:22.223Z,26.35
2023-03-05T13:18:50.584Z,28.35
2023-03-05T13:21:20.391Z,36.58
2023-03-05T13:24:00.013Z,30.00
2023-03-05T13:26:37.390Z,28.88
2023-03-05T13:29:17.980Z,28.63
2023-03-05T13:32:22.443Z,25.85
2023-03-05T13:34:58.078Z,25.33
2023-03-05T13:37:33.326Z,27.52
2023-03-05T13:40:07.172Z,28.88
2023-03-05T13:42:36.284Z,27.98
2023-03-05T13:45:20.744Z,22.63
2023-03-05T13:47:58.007Z,29.67
2023-03-05T13:50:31.232Z,31.73
2023-03-05T13:53:19.239Z,25.52
2023-03-05T13:55:48.056Z,26.83
2023-03-05T13:58:53.120Z,28.27
2023-03-05T14:01:32.849Z,26.02
2023-03-05T14:04:07.260Z,25.40
2023-03-05T14:06:41.065Z,25.20
2023-03-05T14:09:18.896Z,26.25
2023-03-05T14:12:05.637Z,27.20
2023-03-05T14:14:37.620Z,23.70
2023-03-05T14:17:42.266Z,28.70
2023-03-05T14:20:23.405Z,28.08
2023-03-05T14:22:59.126Z,24.27
2023-03-05T14:25:39.622Z,24.80
2023-03-05T14:28:16.974Z,24.17
2023-03-05T14:30:55.599Z,30.27
2023-03-05T14:33:29.654Z,29.52
2023-03-05T14:35:58.399Z,26.67
2023-03-05T14:38:30.500Z,25.60
2023-03-05T14:40:57.743Z,27.67
2023-03-05T14:43:24.745Z,27.73
2023-03-05T14:45:51.648Z,30.63
2023-03-05T14:48:19.101Z,28.02
2023-03-05T14:50:53.707Z,31.10
2023-03-05T14:53:27.374Z,28.23
2023-03-05T14:55:56.938Z,30.70
2023-03-05T14:58:28.506Z,27.40
2023-03-05T15:00:56.846Z,27.50
2023-03-05T15:03:25.356Z,30.45
2023-03-05T15:05:55.242Z,28.35
2023-03-05T15:08:30.563Z,29.02
2023-03-05T15:10:58.134Z,26.50
2023-03-05T15:13:26.007Z,24.60
2023-03-05T15:15:53.877Z,30.45
2023-03-05T15:18:22.753Z,26.48
2023-03-05T15:20:52.106Z,35.13
2023-03-05T15:23:19.895Z,29.13
2023-03-05T15:25:46.889Z,25.05
2023-03-05T15:28:14.048Z,25.15
2023-03-05T15:30:45.337Z,25.40
2023-03-05T15:33:15.022Z,21.98
2023-03-05T15:35:42.771Z,23.25
2023-03-05T15:38:09.619Z,21.23
2023-03-05T15:40:36.484Z,20.35
2023-03-05T15:43:03.415Z,20.30
2023-03-05T15:45:33.786Z,19.55
2023-03-05T15:48:00.750Z,17.55
2023-03-05T15:50:27.902Z,21.30
2023-03-05T15:52:54.831Z,17.73
2023-03-05T15:55:21.741Z,17.45
2023-03-05T15:57:50.402Z,22.15
2023-03-05T16:00:22.056Z,17.42
2023-03-05T16:02:49.470Z,18.65
2023-03-05T16:05:16.492Z,15.02
2023-03-05T16:07:46.041Z,16.08
2023-03-05T16:10:21.624Z,16.75
2023-03-05T16:12:52.422Z,16.38
2023-03-05T16:15:21.434Z,16.27
2023-03-05T16:17:53.583Z,17.90
2023-03-05T16:20:21.084Z,16.85
2023-03-05T16:22:49.355Z,20.77
2023-03-05T16:25:17.013Z,17.02
2023-03-05T16:27:45.076Z,16.42
2023-03-05T16:30:15.532Z,17.38
2023-03-05T16:32:43.113Z,15.00
2023-03-05T16:35:12.372Z,17.05
2023-03-05T16:37:40.390Z,14.80
2023-03-05T16:40:09.729Z,13.50
2023-03-05T16:42:36.723Z,14.52
2023-03-05T16:45:05.060Z,17.38
2023-03-05T16:47:32.102Z,15.20
2023-03-05T16:49:59.333Z,15.18
2023-03-05T16:52:26.709Z,18.58
2023-03-05T16:54:53.842Z,19.02
2023-03-05T16:57:23.644Z,14.05
2023-03-05T16:59:51.674Z,17.13
2023-03-05T17:02:19.321Z,17.40
2023-03-05T17:04:46.466Z,17.50
2023-03-05T17:07:13.516Z,17.77
2023-03-05T17:09:41.153Z,18.25
2023-03-05T17:12:08.726Z,13.65
2023-03-05T17:14:41.732Z,16.02
2023-03-05T17:17:08.747Z,13.13
2023-03-05T17:19:36.015Z,17.48
2023-03-05T17:22:07.100Z,19.40
2023-03-05T17:24:34.192Z,16.85
2023-03-05T17:27:03.523Z,16.00
2023-03-05T17:29:30.903Z,14.15
2023-03-05T17:32:00.884Z,16.40
2023-03-05T17:34:35.961Z,21.75
2023-03-05T17:37:07.904Z,16.15
2023-03-05T17:39:34.858Z,20.15
2023-03-05T17:42:02.116Z,18.48
2023-03-05T17:44:29.136Z,18.77
2023-03-05T17:46:56.018Z,21.17
2023-03-05T17:49:25.552Z,17.80
2023-03-05T17:51:52.639Z,17.67
2023-03-05T17:54:19.703Z,17.63
2023-03-05T17:56:48.092Z,14.85
2023-03-05T17:59:16.409Z,15.63
2023-03-05T18:01:43.387Z,19.98
2023-03-05T18:04:11.233Z,20.02
2023-03-05T18:06:38.346Z,16.90
2023-03-05T18:09:08.014Z,18.00
2023-03-05T18:11:35.402Z,14.48
2023-03-05T18:14:02.592Z,16.92
2023-03-05T18:16:29.649Z,15.07
2023-03-05T18:18:56.784Z,17.17
2023-03-05T18:21:24.919Z,17.13
2023-03-05T18:23:52.163Z,16.85
2023-03-05T18:26:19.047Z,19.70
2023-03-05T18:28:46.006Z,18.77
2023-03-05T18:31:13.187Z,18.10
2023-03-05T18:33:42.382Z,16.00
2023-03-05T18:36:11.752Z,21.13
2023-03-05T18:38:38.862Z,16.25
2023-03-05T18:41:06.591Z,19.80
2023-03-05T18:43:33.865Z,15.60
2023-03-05T18:46:04.977Z,14.90
2023-03-05T18:48:32.087Z,17.25
2023-03-05T18:51:01.230Z,16.17
2023-03-05T18:53:29.066Z,19.45
2023-03-05T18:55:56.073Z,16.52
2023-03-05T18:58:25.688Z,17.70
2023-03-05T19:00:53.188Z,15.85
2023-03-05T19:03:23.269Z,15.75
2023-03-05T19:05:51.326Z,18.27
2023-03-05T19:08:18.703Z,16.15
2023-03-05T19:10:45.892Z,21.35
2023-03-05T19:13:25.337Z,18.40
2023-03-05T19:15:52.593Z,17.75
2023-03-05T19:18:20.719Z,13.50
2023-03-05T19:20:55.645Z,17.08
2023-03-05T19:23:22.675Z,17.77
2023-03-05T19:25:49.538Z,15.20
2023-03-05T19:28:16.719Z,15.85
2023-03-05T19:30:44.405Z,23.00
2023-03-05T19:33:14.018Z,18.65
2023-03-05T19:35:45.201Z,29.70
2023-03-05T19:38:12.210Z,23.23
2023-03-05T19:40:41.506Z,19.67
2023-03-05T19:43:08.569Z,21.42
2023-03-05T19:45:35.832Z,18.52
2023-03-05T19:48:10.633Z,18.80
2023-03-05T19:50:37.568Z,21.48
2023-03-05T19:53:17.084Z,26.40
2023-03-05T19:55:44.183Z,20.25
2023-03-05T19:58:11.330Z,20.73
2023-03-05T20:00:38.272Z,17.00
2023-03-05T20:03:05.420Z,21.13
2023-03-05T20:05:32.488Z,18.05
2023-03-05T20:07:59.416Z,19.08
2023-03-05T20:10:26.411Z,19.73
2023-03-05T20:12:53.712Z,19.90
2023-03-05T20:15:23.570Z,18.85
2023-03-05T20:17:52.762Z,20.10
2023-03-05T20:20:19.862Z,16.10
2023-03-05T20:22:47.654Z,20.55
2023-03-05T20:25:17.928Z,25.48
2023-03-05T20:27:47.572Z,18.65
2023-03-05T20:30:15.997Z,19.25
2023-03-05T20:32:43.262Z,18.55
2023-03-05T20:35:15.223Z,20.20
2023-03-05T20:37:50.209Z,20.63
2023-03-05T20:40:17.696Z,21.50
2023-03-05T20:42:44.860Z,24.35
2023-03-05T20:45:12.187Z,16.85
2023-03-05T20:47:44.717Z,20.05
2023-03-05T20:50:14.311Z,20.17
2023-03-05T20:52:41.668Z,20.17
2023-03-05T20:55:09.318Z,23.77
2023-03-05T20:57:36.578Z,20.63
2023-03-05T21:00:04.172Z,21.75
2023-03-05T21:02:31.228Z,19.90
2023-03-05T21:04:58.312Z,23.38
2023-03-05T21:07:26.372Z,22.20
2023-03-05T21:09:53.307Z,25.00
2023-03-05T21:12:20.469Z,24.10
2023-03-05T21:14:47.415Z,21.52
2023-03-05T21:17:14.394Z,20.67
2023-03-05T21:19:41.524Z,21.80
2023-03-05T21:22:15.966Z,20.17
2023-03-05T21:24:54.544Z,18.80
2023-03-05T21:27:21.613Z,23.83
2023-03-05T21:29:48.599Z,21.00
2023-03-05T21:32:16.129Z,20.00
2023-03-05T21:34:44.092Z,19.95
2023-03-05T21:37:12.056Z,20.98
2023-03-05T21:39:39.243Z,20.40
2023-03-05T21:42:06.230Z,19.77
2023-03-05T21:44:33.152Z,21.13
2023-03-05T21:47:00.066Z,19.23
2023-03-05T21:49:27.283Z,17.80
2023-03-05T21:52:09.087Z,20.27
2023-03-05T21:54:37.831Z,20.80
2023-03-05T21:57:08.869Z,25.00
2023-03-05T21:59:36.018Z,24.48
2023-03-05T22:02:02.957Z,19.40
2023-03-05T22:04:29.842Z,21.10
2023-03-05T22:06:57.303Z,18.67
2023-03-05T22:09:24.494Z,21.52
2023-03-05T22:11:51.434Z,21.90
2023-03-05T22:14:18.518Z,26.10
2023-03-05T22:16:45.602Z,21.65
2023-03-05T22:22:15.979Z,27.40
2023-03-05T22:24:43.026Z,20.42
2023-03-05T22:27:10.154Z,21.80
2023-03-05T22:29:39.692Z,23.35
2023-03-05T22:32:06.815Z,26.52
2023-03-05T22:34:33.952Z,20.38
2023-03-05T22:37:02.163Z,22.75
2023-03-05T22:39:29.221Z,23.27
2023-03-05T22:41:56.208Z,24.95
2023-03-05T22:44:25.830Z,21.58
2023-03-05T22:46:58.705Z,20.63
2023-03-05T22:49:25.935Z,19.02
2023-03-05T22:51:55.781Z,22.95
2023-03-05T22:54:22.869Z,19.90
2023-03-05T22:56:50.085Z,23.08
2023-03-05T22:59:19.621Z,21.98
2023-03-05T23:01:54.108Z,19.83
2023-03-05T23:04:40.127Z,22.25
2023-03-05T23:07:07.507Z,21.67
2023-03-05T23:09:34.398Z,21.73
2023-03-05T23:12:01.672Z,24.98
2023-03-05T23:14:28.688Z,21.80
2023-03-05T23:16:55.742Z,19.83
2023-03-05T23:19:22.959Z,31.05
2023-03-05T23:21:49.995Z,24.30
2023-03-05T23:24:18.497Z,20.02
2023-03-05T23:26:45.588Z,21.00
2023-03-05T23:29:12.551Z,22.05
2023-03-05T23:31:45.201Z,27.05
2023-03-05T23:34:12.167Z,24.33
2023-03-05T23:36:39.205Z,19.08
2023-03-05T23:39:06.170Z,22.92
2023-03-05T23:41:33.069Z,21.17
2023-03-05T23:43:59.950Z,21.05
2023-03-05T23:46:26.838Z,22.45
2023-03-05T23:48:53.693Z,26.33
2023-03-05T23:51:20.518Z,24.10
2023-03-05T23:53:48.421Z,20.33
2023-03-05T23:56:15.610Z,19.85
2023-03-05T23:58:42.949Z,20.35
